sensor_id;sensor_type;location;lat;lon;timestamp;temperature;humidity
11387;DHT22;5748;53.102;8.456;2023-09-19T00:00:19;20.30;66.80
11387;DHT22;5748;53.102;8.456;2023-09-19T00:02:53;20.30;66.70
11387;DHT22;5748;53.102;8.456;2023-09-19T00:05:25;20.30;66.90
11387;DHT22;5748;53.102;8.456;2023-09-19T00:07:53;20.30;66.60
11387;DHT22;5748;53.102;8.456;2023-09-19T00:10:22;20.20;66.70
11387;DHT22;5748;53.102;8.456;2023-09-19T00:12:50;20.30;66.70
11387;DHT22;5748;53.102;8.456;2023-09-19T00:15:18;20.40;66.70
11387;DHT22;5748;53.102;8.456;2023-09-19T00:17:45;21.00;67.60
11387;DHT22;5748;53.102;8.456;2023-09-19T00:20:14;20.40;66.90
11387;DHT22;5748;53.102;8.456;2023-09-19T00:22:42;20.40;66.80
11387;DHT22;5748;53.102;8.456;2023-09-19T00:25:10;20.40;66.30
11387;DHT22;5748;53.102;8.456;2023-09-19T00:27:38;20.40;66.50
11387;DHT22;5748;53.102;8.456;2023-09-19T00:30:08;20.40;66.60
11387;DHT22;5748;53.102;8.456;2023-09-19T00:32:40;20.40;66.50
11387;DHT22;5748;53.102;8.456;2023-09-19T00:35:07;20.30;66.10
11387;DHT22;5748;53.102;8.456;2023-09-19T00:37:37;20.30;66.20
11387;DHT22;5748;53.102;8.456;2023-09-19T00:40:06;20.30;66.00
11387;DHT22;5748;53.102;8.456;2023-09-19T00:42:38;20.30;66.00
11387;DHT22;5748;53.102;8.456;2023-09-19T00:45:07;20.30;65.80
11387;DHT22;5748;53.102;8.456;2023-09-19T00:47:36;20.20;65.80
11387;DHT22;5748;53.102;8.456;2023-09-19T00:50:04;20.30;65.80
11387;DHT22;5748;53.102;8.456;2023-09-19T00:52:33;20.20;65.80
11387;DHT22;5748;53.102;8.456;2023-09-19T00:55:05;20.10;65.50
11387;DHT22;5748;53.102;8.456;2023-09-19T00:57:32;20.10;66.00
11387;DHT22;5748;53.102;8.456;2023-09-19T01:00:00;20.00;65.90
11387;DHT22;5748;53.102;8.456;2023-09-19T01:02:31;20.00;66.10
11387;DHT22;5748;53.102;8.456;2023-09-19T01:04:58;20.00;65.80
11387;DHT22;5748;53.102;8.456;2023-09-19T01:07:26;20.00;66.30
11387;DHT22;5748;53.102;8.456;2023-09-19T01:09:55;20.00;66.40
11387;DHT22;5748;53.102;8.456;2023-09-19T01:12:30;20.00;66.50
11387;DHT22;5748;53.102;8.456;2023-09-19T01:15:06;20.00;66.70
11387;DHT22;5748;53.102;8.456;2023-09-19T01:17:45;20.00;66.70
11387;DHT22;5748;53.102;8.456;2023-09-19T01:20:22;20.00;66.90
11387;DHT22;5748;53.102;8.456;2023-09-19T01:23:05;20.00;66.70
11387;DHT22;5748;53.102;8.456;2023-09-19T01:26:05;20.00;66.90
11387;DHT22;5748;53.102;8.456;2023-09-19T01:29:13;20.00;67.00
11387;DHT22;5748;53.102;8.456;2023-09-19T01:31:51;19.90;67.20
11387;DHT22;5748;53.102;8.456;2023-09-19T01:34:19;19.90;66.50
11387;DHT22;5748;53.102;8.456;2023-09-19T01:36:46;19.90;66.30
11387;DHT22;5748;53.102;8.456;2023-09-19T01:39:14;19.80;66.20
11387;DHT22;5748;53.102;8.456;2023-09-19T01:41:51;19.80;66.30
11387;DHT22;5748;53.102;8.456;2023-09-19T01:47:18;19.70;66.30
11387;DHT22;5748;53.102;8.456;2023-09-19T01:49:55;19.60;66.10
11387;DHT22;5748;53.102;8.456;2023-09-19T01:52:23;19.60;66.20
11387;DHT22;5748;53.102;8.456;2023-09-19T01:54:58;19.50;65.80
11387;DHT22;5748;53.102;8.456;2023-09-19T01:57:35;19.50;66.00
11387;DHT22;5748;53.102;8.456;2023-09-19T02:00:10;19.40;65.70
11387;DHT22;5748;53.102;8.456;2023-09-19T02:02:44;19.40;65.70
11387;DHT22;5748;53.102;8.456;2023-09-19T02:05:12;19.30;65.70
11387;DHT22;5748;53.102;8.456;2023-09-19T02:07:39;19.10;65.40
11387;DHT22;5748;53.102;8.456;2023-09-19T02:10:07;19.20;65.60
11387;DHT22;5748;53.102;8.456;2023-09-19T02:12:35;19.10;65.60
11387;DHT22;5748;53.102;8.456;2023-09-19T02:15:04;19.10;65.20
11387;DHT22;5748;53.102;8.456;2023-09-19T02:17:32;19.10;65.60
11387;DHT22;5748;53.102;8.456;2023-09-19T02:20:01;19.00;64.80
11387;DHT22;5748;53.102;8.456;2023-09-19T02:22:29;18.90;65.30
11387;DHT22;5748;53.102;8.456;2023-09-19T02:24:56;18.90;65.40
11387;DHT22;5748;53.102;8.456;2023-09-19T02:27:26;18.90;65.30
11387;DHT22;5748;53.102;8.456;2023-09-19T02:29:52;18.90;65.40
11387;DHT22;5748;53.102;8.456;2023-09-19T02:32:19;18.80;65.30
11387;DHT22;5748;53.102;8.456;2023-09-19T02:34:46;18.80;65.50
11387;DHT22;5748;53.102;8.456;2023-09-19T02:37:15;18.60;65.30
11387;DHT22;5748;53.102;8.456;2023-09-19T02:39:44;18.60;65.40
11387;DHT22;5748;53.102;8.456;2023-09-19T02:42:11;18.60;65.40
11387;DHT22;5748;53.102;8.456;2023-09-19T02:44:38;18.60;65.50
11387;DHT22;5748;53.102;8.456;2023-09-19T02:47:05;18.50;65.50
11387;DHT22;5748;53.102;8.456;2023-09-19T02:49:32;18.50;65.50
11387;DHT22;5748;53.102;8.456;2023-09-19T02:52:00;18.40;65.40
11387;DHT22;5748;53.102;8.456;2023-09-19T02:54:30;18.30;65.40
11387;DHT22;5748;53.102;8.456;2023-09-19T02:56:57;18.30;65.70
11387;DHT22;5748;53.102;8.456;2023-09-19T02:59:24;18.30;65.70
11387;DHT22;5748;53.102;8.456;2023-09-19T03:01:51;18.30;65.70
11387;DHT22;5748;53.102;8.456;2023-09-19T03:04:19;18.20;65.70
11387;DHT22;5748;53.102;8.456;2023-09-19T03:06:47;18.20;65.80
11387;DHT22;5748;53.102;8.456;2023-09-19T03:09:16;18.20;65.80
11387;DHT22;5748;53.102;8.456;2023-09-19T03:11:46;18.10;65.70
11387;DHT22;5748;53.102;8.456;2023-09-19T03:14:13;18.10;65.90
11387;DHT22;5748;53.102;8.456;2023-09-19T03:16:41;18.00;65.90
11387;DHT22;5748;53.102;8.456;2023-09-19T03:19:09;18.00;65.90
11387;DHT22;5748;53.102;8.456;2023-09-19T03:21:37;17.90;65.90
11387;DHT22;5748;53.102;8.456;2023-09-19T03:24:05;18.00;66.20
11387;DHT22;5748;53.102;8.456;2023-09-19T03:26:32;17.90;66.20
11387;DHT22;5748;53.102;8.456;2023-09-19T03:29:03;17.80;66.00
11387;DHT22;5748;53.102;8.456;2023-09-19T03:31:33;17.90;66.30
11387;DHT22;5748;53.102;8.456;2023-09-19T03:34:02;17.90;66.20
11387;DHT22;5748;53.102;8.456;2023-09-19T03:36:30;17.80;66.90
11387;DHT22;5748;53.102;8.456;2023-09-19T03:38:57;17.80;66.20
11387;DHT22;5748;53.102;8.456;2023-09-19T03:41:23;17.80;66.10
11387;DHT22;5748;53.102;8.456;2023-09-19T03:43:50;17.80;66.20
11387;DHT22;5748;53.102;8.456;2023-09-19T03:46:19;17.00;65.60
11387;DHT22;5748;53.102;8.456;2023-09-19T03:48:46;17.80;66.30
11387;DHT22;5748;53.102;8.456;2023-09-19T03:51:13;17.70;66.30
11387;DHT22;5748;53.102;8.456;2023-09-19T03:53:40;17.70;66.30
11387;DHT22;5748;53.102;8.456;2023-09-19T03:56:07;17.70;66.20
11387;DHT22;5748;53.102;8.456;2023-09-19T03:58:34;17.70;66.30
11387;DHT22;5748;53.102;8.456;2023-09-19T04:01:04;17.70;66.20
11387;DHT22;5748;53.102;8.456;2023-09-19T04:03:33;17.70;66.40
11387;DHT22;5748;53.102;8.456;2023-09-19T04:06:11;17.70;66.30
11387;DHT22;5748;53.102;8.456;2023-09-19T04:08:38;17.70;66.40
11387;DHT22;5748;53.102;8.456;2023-09-19T04:11:05;17.70;66.40
11387;DHT22;5748;53.102;8.456;2023-09-19T04:13:32;20.40;69.10
11387;DHT22;5748;53.102;8.456;2023-09-19T04:15:59;17.60;66.20
11387;DHT22;5748;53.102;8.456;2023-09-19T04:18:26;17.60;66.60
11387;DHT22;5748;53.102;8.456;2023-09-19T04:20:54;17.60;66.20
11387;DHT22;5748;53.102;8.456;2023-09-19T04:23:21;17.60;66.20
11387;DHT22;5748;53.102;8.456;2023-09-19T04:25:48;17.60;66.10
11387;DHT22;5748;53.102;8.456;2023-09-19T04:28:16;17.60;66.20
11387;DHT22;5748;53.102;8.456;2023-09-19T04:30:43;17.60;66.30
11387;DHT22;5748;53.102;8.456;2023-09-19T04:33:10;17.60;66.30
11387;DHT22;5748;53.102;8.456;2023-09-19T04:35:37;17.60;66.30
11387;DHT22;5748;53.102;8.456;2023-09-19T04:38:06;17.60;66.40
11387;DHT22;5748;53.102;8.456;2023-09-19T04:40:32;17.60;66.40
11387;DHT22;5748;53.102;8.456;2023-09-19T04:42:59;17.60;66.30
11387;DHT22;5748;53.102;8.456;2023-09-19T04:45:28;17.60;66.40
11387;DHT22;5748;53.102;8.456;2023-09-19T04:47:55;17.50;66.30
11387;DHT22;5748;53.102;8.456;2023-09-19T04:50:22;17.50;66.30
11387;DHT22;5748;53.102;8.456;2023-09-19T04:52:51;17.50;66.20
11387;DHT22;5748;53.102;8.456;2023-09-19T04:55:20;17.50;66.20
11387;DHT22;5748;53.102;8.456;2023-09-19T04:57:48;17.50;66.40
11387;DHT22;5748;53.102;8.456;2023-09-19T05:00:17;17.50;66.40
11387;DHT22;5748;53.102;8.456;2023-09-19T05:02:49;17.50;66.50
11387;DHT22;5748;53.102;8.456;2023-09-19T05:05:18;17.40;66.50
11387;DHT22;5748;53.102;8.456;2023-09-19T05:07:45;17.20;67.20
11387;DHT22;5748;53.102;8.456;2023-09-19T05:10:13;17.30;67.70
11387;DHT22;5748;53.102;8.456;2023-09-19T05:12:41;17.30;67.30
11387;DHT22;5748;53.102;8.456;2023-09-19T05:15:10;17.40;67.60
11387;DHT22;5748;53.102;8.456;2023-09-19T05:17:37;17.40;67.30
11387;DHT22;5748;53.102;8.456;2023-09-19T05:20:06;17.40;67.20
11387;DHT22;5748;53.102;8.456;2023-09-19T05:22:38;17.40;67.30
11387;DHT22;5748;53.102;8.456;2023-09-19T05:25:07;17.50;67.30
11387;DHT22;5748;53.102;8.456;2023-09-19T05:27:34;17.50;67.30
11387;DHT22;5748;53.102;8.456;2023-09-19T05:30:02;17.50;67.20
11387;DHT22;5748;53.102;8.456;2023-09-19T05:32:30;17.50;67.30
11387;DHT22;5748;53.102;8.456;2023-09-19T05:34:57;17.50;67.40
11387;DHT22;5748;53.102;8.456;2023-09-19T05:37:24;17.50;67.70
11387;DHT22;5748;53.102;8.456;2023-09-19T05:39:51;17.60;67.40
11387;DHT22;5748;53.102;8.456;2023-09-19T05:42:19;17.60;67.80
11387;DHT22;5748;53.102;8.456;2023-09-19T05:44:46;17.60;68.00
11387;DHT22;5748;53.102;8.456;2023-09-19T05:47:14;17.70;67.90
11387;DHT22;5748;53.102;8.456;2023-09-19T05:49:41;17.70;67.90
11387;DHT22;5748;53.102;8.456;2023-09-19T05:52:09;17.70;67.80
11387;DHT22;5748;53.102;8.456;2023-09-19T05:54:36;17.70;67.80
11387;DHT22;5748;53.102;8.456;2023-09-19T05:57:03;17.80;67.80
11387;DHT22;5748;53.102;8.456;2023-09-19T05:59:30;17.80;67.80
11387;DHT22;5748;53.102;8.456;2023-09-19T06:01:58;17.80;67.70
11387;DHT22;5748;53.102;8.456;2023-09-19T06:04:27;17.90;67.70
11387;DHT22;5748;53.102;8.456;2023-09-19T06:06:56;17.90;67.70
11387;DHT22;5748;53.102;8.456;2023-09-19T06:09:23;17.90;67.90
11387;DHT22;5748;53.102;8.456;2023-09-19T06:11:53;18.00;67.90
11387;DHT22;5748;53.102;8.456;2023-09-19T06:14:21;18.00;67.70
11387;DHT22;5748;53.102;8.456;2023-09-19T06:16:50;18.00;67.90
11387;DHT22;5748;53.102;8.456;2023-09-19T06:19:19;18.00;67.80
11387;DHT22;5748;53.102;8.456;2023-09-19T06:21:49;18.10;67.80
11387;DHT22;5748;53.102;8.456;2023-09-19T06:24:16;18.10;67.80
11387;DHT22;5748;53.102;8.456;2023-09-19T06:26:44;18.20;67.80
11387;DHT22;5748;53.102;8.456;2023-09-19T06:29:11;18.20;67.80
11387;DHT22;5748;53.102;8.456;2023-09-19T06:31:40;18.20;68.20
11387;DHT22;5748;53.102;8.456;2023-09-19T06:34:07;18.30;69.40
11387;DHT22;5748;53.102;8.456;2023-09-19T06:36:34;18.20;67.90
11387;DHT22;5748;53.102;8.456;2023-09-19T06:39:02;18.30;67.50
11387;DHT22;5748;53.102;8.456;2023-09-19T06:41:31;18.40;67.60
11387;DHT22;5748;53.102;8.456;2023-09-19T06:43:58;18.40;67.50
11387;DHT22;5748;53.102;8.456;2023-09-19T06:46:25;18.40;67.40
11387;DHT22;5748;53.102;8.456;2023-09-19T06:48:52;18.40;67.40
11387;DHT22;5748;53.102;8.456;2023-09-19T06:51:18;18.40;67.30
11387;DHT22;5748;53.102;8.456;2023-09-19T06:53:45;18.50;67.30
11387;DHT22;5748;53.102;8.456;2023-09-19T06:56:14;18.50;67.10
11387;DHT22;5748;53.102;8.456;2023-09-19T06:58:40;18.50;67.20
11387;DHT22;5748;53.102;8.456;2023-09-19T07:01:09;18.50;67.00
11387;DHT22;5748;53.102;8.456;2023-09-19T07:03:35;18.60;66.90
11387;DHT22;5748;53.102;8.456;2023-09-19T07:06:03;18.60;66.90
11387;DHT22;5748;53.102;8.456;2023-09-19T07:08:30;18.60;66.80
11387;DHT22;5748;53.102;8.456;2023-09-19T07:10:56;18.60;66.70
11387;DHT22;5748;53.102;8.456;2023-09-19T07:13:25;18.70;66.70
11387;DHT22;5748;53.102;8.456;2023-09-19T07:15:52;18.70;67.10
11387;DHT22;5748;53.102;8.456;2023-09-19T07:18:19;18.70;67.20
11387;DHT22;5748;53.102;8.456;2023-09-19T07:20:47;18.80;67.10
11387;DHT22;5748;53.102;8.456;2023-09-19T07:23:15;18.90;67.20
11387;DHT22;5748;53.102;8.456;2023-09-19T07:25:44;18.90;66.80
11387;DHT22;5748;53.102;8.456;2023-09-19T07:28:12;21.10;69.00
11387;DHT22;5748;53.102;8.456;2023-09-19T07:30:40;19.10;68.20
11387;DHT22;5748;53.102;8.456;2023-09-19T07:33:08;19.20;66.80
11387;DHT22;5748;53.102;8.456;2023-09-19T07:35:36;19.20;66.60
11387;DHT22;5748;53.102;8.456;2023-09-19T07:38:05;19.30;66.50
11387;DHT22;5748;53.102;8.456;2023-09-19T07:40:32;19.30;66.40
11387;DHT22;5748;53.102;8.456;2023-09-19T07:42:59;19.80;66.80
11387;DHT22;5748;53.102;8.456;2023-09-19T07:45:27;19.40;66.30
11387;DHT22;5748;53.102;8.456;2023-09-19T07:47:57;19.50;66.20
11387;DHT22;5748;53.102;8.456;2023-09-19T07:50:24;19.60;66.20
11387;DHT22;5748;53.102;8.456;2023-09-19T07:52:52;19.60;66.10
11387;DHT22;5748;53.102;8.456;2023-09-19T07:55:20;19.70;66.20
11387;DHT22;5748;53.102;8.456;2023-09-19T07:57:49;19.80;66.20
11387;DHT22;5748;53.102;8.456;2023-09-19T08:00:16;19.90;66.50
11387;DHT22;5748;53.102;8.456;2023-09-19T08:02:43;20.00;66.50
11387;DHT22;5748;53.102;8.456;2023-09-19T08:05:12;21.50;67.40
11387;DHT22;5748;53.102;8.456;2023-09-19T08:07:43;20.30;65.80
11387;DHT22;5748;53.102;8.456;2023-09-19T08:10:14;20.40;66.30
11387;DHT22;5748;53.102;8.456;2023-09-19T08:12:42;20.50;66.10
11387;DHT22;5748;53.102;8.456;2023-09-19T08:15:12;20.60;66.30
11387;DHT22;5748;53.102;8.456;2023-09-19T08:17:40;20.70;65.90
11387;DHT22;5748;53.102;8.456;2023-09-19T08:20:08;20.80;65.70
11387;DHT22;5748;53.102;8.456;2023-09-19T08:22:43;20.90;65.50
11387;DHT22;5748;53.102;8.456;2023-09-19T08:25:13;21.00;65.50
11387;DHT22;5748;53.102;8.456;2023-09-19T08:27:43;21.10;65.80
11387;DHT22;5748;53.102;8.456;2023-09-19T08:30:13;21.20;66.00
11387;DHT22;5748;53.102;8.456;2023-09-19T08:32:41;21.30;65.80
11387;DHT22;5748;53.102;8.456;2023-09-19T08:35:09;21.50;65.80
11387;DHT22;5748;53.102;8.456;2023-09-19T08:37:36;21.60;66.20
11387;DHT22;5748;53.102;8.456;2023-09-19T08:40:04;21.80;67.30
11387;DHT22;5748;53.102;8.456;2023-09-19T08:42:47;22.10;67.30
11387;DHT22;5748;53.102;8.456;2023-09-19T08:45:16;22.40;64.10
11387;DHT22;5748;53.102;8.456;2023-09-19T08:47:46;22.60;66.70
11387;DHT22;5748;53.102;8.456;2023-09-19T08:50:19;22.80;64.30
11387;DHT22;5748;53.102;8.456;2023-09-19T08:52:52;23.00;64.60
11387;DHT22;5748;53.102;8.456;2023-09-19T08:55:24;23.10;64.20
11387;DHT22;5748;53.102;8.456;2023-09-19T08:57:59;23.20;64.40
11387;DHT22;5748;53.102;8.456;2023-09-19T09:00:28;23.30;63.30
11387;DHT22;5748;53.102;8.456;2023-09-19T09:02:56;23.50;64.90
11387;DHT22;5748;53.102;8.456;2023-09-19T09:05:26;23.60;64.70
11387;DHT22;5748;53.102;8.456;2023-09-19T09:07:55;23.70;64.80
11387;DHT22;5748;53.102;8.456;2023-09-19T09:10:25;23.80;63.00
11387;DHT22;5748;53.102;8.456;2023-09-19T09:12:53;24.00;64.50
11387;DHT22;5748;53.102;8.456;2023-09-19T09:15:21;24.10;64.40
11387;DHT22;5748;53.102;8.456;2023-09-19T09:17:50;24.30;63.70
11387;DHT22;5748;53.102;8.456;2023-09-19T09:20:18;24.50;63.90
11387;DHT22;5748;53.102;8.456;2023-09-19T09:22:51;24.60;64.10
11387;DHT22;5748;53.102;8.456;2023-09-19T09:25:19;24.80;62.00
11387;DHT22;5748;53.102;8.456;2023-09-19T09:27:58;24.80;60.30
11387;DHT22;5748;53.102;8.456;2023-09-19T09:30:33;24.80;58.90
11387;DHT22;5748;53.102;8.456;2023-09-19T09:33:10;24.80;61.20
11387;DHT22;5748;53.102;8.456;2023-09-19T09:35:47;24.80;60.90
11387;DHT22;5748;53.102;8.456;2023-09-19T09:38:17;24.80;60.10
11387;DHT22;5748;53.102;8.456;2023-09-19T09:40:49;24.80;59.80
11387;DHT22;5748;53.102;8.456;2023-09-19T09:43:29;24.80;59.20
11387;DHT22;5748;53.102;8.456;2023-09-19T09:46:16;24.80;58.60
11387;DHT22;5748;53.102;8.456;2023-09-19T09:49:02;24.70;54.60
11387;DHT22;5748;53.102;8.456;2023-09-19T09:51:59;24.60;58.00
11387;DHT22;5748;53.102;8.456;2023-09-19T09:54:31;24.40;57.50
11387;DHT22;5748;53.102;8.456;2023-09-19T09:57:03;24.20;57.50
11387;DHT22;5748;53.102;8.456;2023-09-19T09:59:47;24.10;56.90
11387;DHT22;5748;53.102;8.456;2023-09-19T10:02:25;23.90;57.20
11387;DHT22;5748;53.102;8.456;2023-09-19T10:04:55;23.70;57.20
11387;DHT22;5748;53.102;8.456;2023-09-19T10:07:34;23.60;58.00
11387;DHT22;5748;53.102;8.456;2023-09-19T10:10:05;23.40;57.50
11387;DHT22;5748;53.102;8.456;2023-09-19T10:12:44;23.30;57.20
11387;DHT22;5748;53.102;8.456;2023-09-19T10:15:17;23.10;57.60
11387;DHT22;5748;53.102;8.456;2023-09-19T10:17:46;23.00;57.70
11387;DHT22;5748;53.102;8.456;2023-09-19T10:20:15;22.90;57.70
11387;DHT22;5748;53.102;8.456;2023-09-19T10:23:05;22.70;58.20
11387;DHT22;5748;53.102;8.456;2023-09-19T10:25:39;22.60;57.70
11387;DHT22;5748;53.102;8.456;2023-09-19T10:28:08;22.60;57.90
11387;DHT22;5748;53.102;8.456;2023-09-19T10:30:41;22.60;58.50
11387;DHT22;5748;53.102;8.456;2023-09-19T10:33:11;22.60;59.00
11387;DHT22;5748;53.102;8.456;2023-09-19T10:35:41;22.70;59.60
11387;DHT22;5748;53.102;8.456;2023-09-19T10:38:10;22.90;61.00
11387;DHT22;5748;53.102;8.456;2023-09-19T10:40:39;23.10;61.00
11387;DHT22;5748;53.102;8.456;2023-09-19T10:43:12;23.30;59.50
11387;DHT22;5748;53.102;8.456;2023-09-19T10:45:42;23.50;59.20
11387;DHT22;5748;53.102;8.456;2023-09-19T10:48:11;23.80;59.20
11387;DHT22;5748;53.102;8.456;2023-09-19T10:50:44;23.90;59.40
11387;DHT22;5748;53.102;8.456;2023-09-19T10:53:17;24.20;58.50
11387;DHT22;5748;53.102;8.456;2023-09-19T10:55:50;24.50;58.40
11387;DHT22;5748;53.102;8.456;2023-09-19T10:58:26;24.60;57.70
11387;DHT22;5748;53.102;8.456;2023-09-19T11:00:56;24.70;57.20
11387;DHT22;5748;53.102;8.456;2023-09-19T11:03:31;24.90;57.80
11387;DHT22;5748;53.102;8.456;2023-09-19T11:06:10;25.10;58.70
11387;DHT22;5748;53.102;8.456;2023-09-19T11:08:59;25.20;56.50
11387;DHT22;5748;53.102;8.456;2023-09-19T11:11:43;25.30;54.70
11387;DHT22;5748;53.102;8.456;2023-09-19T11:14:41;25.30;55.10
11387;DHT22;5748;53.102;8.456;2023-09-19T11:17:38;25.30;55.00
11387;DHT22;5748;53.102;8.456;2023-09-19T11:20:20;25.40;54.20
11387;DHT22;5748;53.102;8.456;2023-09-19T11:23:19;25.50;54.60
11387;DHT22;5748;53.102;8.456;2023-09-19T11:25:50;25.60;56.00
11387;DHT22;5748;53.102;8.456;2023-09-19T11:28:32;25.70;55.70
11387;DHT22;5748;53.102;8.456;2023-09-19T11:31:41;25.80;54.50
11387;DHT22;5748;53.102;8.456;2023-09-19T11:34:42;25.80;53.00
11387;DHT22;5748;53.102;8.456;2023-09-19T11:40:37;25.90;53.20
11387;DHT22;5748;53.102;8.456;2023-09-19T11:43:30;26.10;55.10
11387;DHT22;5748;53.102;8.456;2023-09-19T11:46:06;26.20;53.90
11387;DHT22;5748;53.102;8.456;2023-09-19T11:48:34;26.20;52.20
11387;DHT22;5748;53.102;8.456;2023-09-19T11:51:16;26.20;53.80
11387;DHT22;5748;53.102;8.456;2023-09-19T11:53:49;26.20;52.90
11387;DHT22;5748;53.102;8.456;2023-09-19T11:56:17;26.20;54.80
11387;DHT22;5748;53.102;8.456;2023-09-19T11:58:46;26.20;53.70
11387;DHT22;5748;53.102;8.456;2023-09-19T12:01:23;26.30;54.10
11387;DHT22;5748;53.102;8.456;2023-09-19T12:03:55;26.40;54.60
11387;DHT22;5748;53.102;8.456;2023-09-19T12:06:25;26.60;54.90
11387;DHT22;5748;53.102;8.456;2023-09-19T12:08:53;26.80;55.00
11387;DHT22;5748;53.102;8.456;2023-09-19T12:11:22;27.10;54.60
11387;DHT22;5748;53.102;8.456;2023-09-19T12:13:50;27.40;53.60
11387;DHT22;5748;53.102;8.456;2023-09-19T12:16:19;27.60;52.60
11387;DHT22;5748;53.102;8.456;2023-09-19T12:18:50;27.70;52.80
11387;DHT22;5748;53.102;8.456;2023-09-19T12:21:25;27.90;52.00
11387;DHT22;5748;53.102;8.456;2023-09-19T12:24:12;28.00;50.50
11387;DHT22;5748;53.102;8.456;2023-09-19T12:26:40;27.90;49.30
11387;DHT22;5748;53.102;8.456;2023-09-19T12:29:13;27.90;50.00
11387;DHT22;5748;53.102;8.456;2023-09-19T12:31:51;27.70;48.80
11387;DHT22;5748;53.102;8.456;2023-09-19T12:34:22;27.50;49.00
11387;DHT22;5748;53.102;8.456;2023-09-19T12:37:08;27.50;50.70
11387;DHT22;5748;53.102;8.456;2023-09-19T12:39:42;27.30;50.20
11387;DHT22;5748;53.102;8.456;2023-09-19T12:42:14;26.70;51.00
11387;DHT22;5748;53.102;8.456;2023-09-19T12:44:44;27.50;52.20
11387;DHT22;5748;53.102;8.456;2023-09-19T12:47:13;27.40;52.00
11387;DHT22;5748;53.102;8.456;2023-09-19T12:50:07;27.70;52.30
11387;DHT22;5748;53.102;8.456;2023-09-19T12:52:41;27.80;49.80
11387;DHT22;5748;53.102;8.456;2023-09-19T12:55:20;28.20;47.90
11387;DHT22;5748;53.102;8.456;2023-09-19T12:58:07;28.20;49.90
11387;DHT22;5748;53.102;8.456;2023-09-19T13:00:37;28.30;50.00
11387;DHT22;5748;53.102;8.456;2023-09-19T13:03:16;28.30;50.20
11387;DHT22;5748;53.102;8.456;2023-09-19T13:05:52;28.20;49.10
11387;DHT22;5748;53.102;8.456;2023-09-19T13:08:24;28.20;49.50
11387;DHT22;5748;53.102;8.456;2023-09-19T13:11:01;27.80;48.70
11387;DHT22;5748;53.102;8.456;2023-09-19T13:13:29;27.70;48.50
11387;DHT22;5748;53.102;8.456;2023-09-19T13:15:56;27.50;48.10
11387;DHT22;5748;53.102;8.456;2023-09-19T13:18:23;27.30;47.90
11387;DHT22;5748;53.102;8.456;2023-09-19T13:21:05;27.20;48.20
11387;DHT22;5748;53.102;8.456;2023-09-19T13:23:35;27.10;47.30
11387;DHT22;5748;53.102;8.456;2023-09-19T13:26:02;27.00;48.90
11387;DHT22;5748;53.102;8.456;2023-09-19T13:28:31;26.80;49.00
11387;DHT22;5748;53.102;8.456;2023-09-19T13:30:58;26.80;49.00
11387;DHT22;5748;53.102;8.456;2023-09-19T13:33:24;26.50;48.60
11387;DHT22;5748;53.102;8.456;2023-09-19T13:35:51;26.40;48.60
11387;DHT22;5748;53.102;8.456;2023-09-19T13:38:19;26.20;49.00
11387;DHT22;5748;53.102;8.456;2023-09-19T13:40:48;26.10;49.40
11387;DHT22;5748;53.102;8.456;2023-09-19T13:43:18;26.20;49.70
11387;DHT22;5748;53.102;8.456;2023-09-19T13:45:47;26.30;50.00
11387;DHT22;5748;53.102;8.456;2023-09-19T13:48:15;25.90;49.90
11387;DHT22;5748;53.102;8.456;2023-09-19T13:50:48;25.70;49.70
11387;DHT22;5748;53.102;8.456;2023-09-19T13:53:15;25.60;49.60
11387;DHT22;5748;53.102;8.456;2023-09-19T13:55:43;25.50;49.80
11387;DHT22;5748;53.102;8.456;2023-09-19T13:58:11;25.40;49.50
11387;DHT22;5748;53.102;8.456;2023-09-19T14:00:38;25.30;49.50
11387;DHT22;5748;53.102;8.456;2023-09-19T14:03:05;25.30;49.90
11387;DHT22;5748;53.102;8.456;2023-09-19T14:05:32;25.20;50.20
11387;DHT22;5748;53.102;8.456;2023-09-19T14:07:59;25.10;50.10
11387;DHT22;5748;53.102;8.456;2023-09-19T14:10:28;25.10;50.10
11387;DHT22;5748;53.102;8.456;2023-09-19T14:12:56;24.90;49.80
11387;DHT22;5748;53.102;8.456;2023-09-19T14:15:26;24.80;50.00
11387;DHT22;5748;53.102;8.456;2023-09-19T14:17:56;24.70;50.00
11387;DHT22;5748;53.102;8.456;2023-09-19T14:20:25;24.60;50.30
11387;DHT22;5748;53.102;8.456;2023-09-19T14:22:53;24.60;50.40
11387;DHT22;5748;53.102;8.456;2023-09-19T14:25:20;24.60;50.60
11387;DHT22;5748;53.102;8.456;2023-09-19T14:27:47;24.40;50.60
11387;DHT22;5748;53.102;8.456;2023-09-19T14:30:14;24.30;50.60
11387;DHT22;5748;53.102;8.456;2023-09-19T14:32:43;24.20;50.60
11387;DHT22;5748;53.102;8.456;2023-09-19T14:35:09;24.00;50.10
11387;DHT22;5748;53.102;8.456;2023-09-19T14:37:40;24.00;50.80
11387;DHT22;5748;53.102;8.456;2023-09-19T14:40:08;23.90;51.00
11387;DHT22;5748;53.102;8.456;2023-09-19T14:42:38;23.90;51.30
11387;DHT22;5748;53.102;8.456;2023-09-19T14:45:06;23.80;51.00
11387;DHT22;5748;53.102;8.456;2023-09-19T14:47:34;23.80;51.60
11387;DHT22;5748;53.102;8.456;2023-09-19T14:50:04;23.80;51.40
11387;DHT22;5748;53.102;8.456;2023-09-19T14:52:32;23.80;51.50
11387;DHT22;5748;53.102;8.456;2023-09-19T14:54:59;23.80;51.00
11387;DHT22;5748;53.102;8.456;2023-09-19T14:57:27;23.80;51.40
11387;DHT22;5748;53.102;8.456;2023-09-19T14:59:54;23.70;51.30
11387;DHT22;5748;53.102;8.456;2023-09-19T15:02:21;23.60;51.40
11387;DHT22;5748;53.102;8.456;2023-09-19T15:04:48;23.50;51.40
11387;DHT22;5748;53.102;8.456;2023-09-19T15:07:17;23.60;51.70
11387;DHT22;5748;53.102;8.456;2023-09-19T15:09:45;23.70;51.80
11387;DHT22;5748;53.102;8.456;2023-09-19T15:12:12;23.60;51.80
11387;DHT22;5748;53.102;8.456;2023-09-19T15:14:40;23.60;51.90
11387;DHT22;5748;53.102;8.456;2023-09-19T15:17:07;23.40;51.80
11387;DHT22;5748;53.102;8.456;2023-09-19T15:19:34;23.50;51.80
11387;DHT22;5748;53.102;8.456;2023-09-19T15:22:03;23.40;51.90
11387;DHT22;5748;53.102;8.456;2023-09-19T15:24:32;23.30;52.00
11387;DHT22;5748;53.102;8.456;2023-09-19T15:27:00;23.30;52.00
11387;DHT22;5748;53.102;8.456;2023-09-19T15:29:27;23.40;52.20
11387;DHT22;5748;53.102;8.456;2023-09-19T15:31:55;23.30;52.20
11387;DHT22;5748;53.102;8.456;2023-09-19T15:34:24;23.30;52.20
11387;DHT22;5748;53.102;8.456;2023-09-19T15:36:51;23.30;52.30
11387;DHT22;5748;53.102;8.456;2023-09-19T15:39:18;23.30;52.20
11387;DHT22;5748;53.102;8.456;2023-09-19T15:41:49;23.20;52.20
11387;DHT22;5748;53.102;8.456;2023-09-19T15:44:18;23.20;52.20
11387;DHT22;5748;53.102;8.456;2023-09-19T15:46:46;23.00;52.20
11387;DHT22;5748;53.102;8.456;2023-09-19T15:49:13;23.10;52.30
11387;DHT22;5748;53.102;8.456;2023-09-19T15:51:40;23.10;52.40
11387;DHT22;5748;53.102;8.456;2023-09-19T15:54:10;23.10;52.40
11387;DHT22;5748;53.102;8.456;2023-09-19T15:56:40;23.10;52.50
11387;DHT22;5748;53.102;8.456;2023-09-19T15:59:09;23.00;52.40
11387;DHT22;5748;53.102;8.456;2023-09-19T16:01:37;23.10;52.60
11387;DHT22;5748;53.102;8.456;2023-09-19T16:04:06;23.10;52.70
11387;DHT22;5748;53.102;8.456;2023-09-19T16:06:35;23.10;52.60
11387;DHT22;5748;53.102;8.456;2023-09-19T16:09:03;23.10;52.60
11387;DHT22;5748;53.102;8.456;2023-09-19T16:11:33;23.10;52.70